sensor_id;sensor_type;location;lat;lon;timestamp;temperature;humidity
65044;DHT22;51617;48.158;16.464;2023-10-31T00:00:44;17.70;99.90
65044;DHT22;51617;48.158;16.464;2023-10-31T00:03:09;17.70;99.90
65044;DHT22;51617;48.158;16.464;2023-10-31T00:05:36;17.70;99.90
65044;DHT22;51617;48.158;16.464;2023-10-31T00:08:01;17.70;99.90
65044;DHT22;51617;48.158;16.464;2023-10-31T00:10:27;17.70;99.90
65044;DHT22;51617;48.158;16.464;2023-10-31T00:12:53;17.70;99.80
65044;DHT22;51617;48.158;16.464;2023-10-31T00:15:18;17.70;99.80
65044;DHT22;51617;48.158;16.464;2023-10-31T00:17:44;17.70;99.70
65044;DHT22;51617;48.158;16.464;2023-10-31T00:20:09;17.70;99.70
65044;DHT22;51617;48.158;16.464;2023-10-31T00:22:35;17.70;99.60
65044;DHT22;51617;48.158;16.464;2023-10-31T00:25:01;17.70;99.60
65044;DHT22;51617;48.158;16.464;2023-10-31T00:27:26;17.70;99.60
65044;DHT22;51617;48.158;16.464;2023-10-31T00:29:52;17.70;99.50
65044;DHT22;51617;48.158;16.464;2023-10-31T00:32:18;17.70;99.40
65044;DHT22;51617;48.158;16.464;2023-10-31T00:34:43;17.70;99.50
65044;DHT22;51617;48.158;16.464;2023-10-31T00:37:09;17.70;99.50
65044;DHT22;51617;48.158;16.464;2023-10-31T00:39:34;17.60;99.70
65044;DHT22;51617;48.158;16.464;2023-10-31T00:42:00;17.60;99.80
65044;DHT22;51617;48.158;16.464;2023-10-31T00:44:26;17.60;99.80
65044;DHT22;51617;48.158;16.464;2023-10-31T00:46:51;17.60;99.80
65044;DHT22;51617;48.158;16.464;2023-10-31T00:49:17;17.60;99.80
65044;DHT22;51617;48.158;16.464;2023-10-31T00:51:42;17.60;99.80
65044;DHT22;51617;48.158;16.464;2023-10-31T00:54:08;17.60;99.80
65044;DHT22;51617;48.158;16.464;2023-10-31T00:56:34;17.60;99.80
65044;DHT22;51617;48.158;16.464;2023-10-31T00:59:00;17.50;99.80
65044;DHT22;51617;48.158;16.464;2023-10-31T01:01:26;17.40;99.80
65044;DHT22;51617;48.158;16.464;2023-10-31T01:03:51;17.50;99.80
65044;DHT22;51617;48.158;16.464;2023-10-31T01:06:17;17.50;99.60
65044;DHT22;51617;48.158;16.464;2023-10-31T01:08:42;17.60;99.50
65044;DHT22;51617;48.158;16.464;2023-10-31T01:11:08;17.60;99.40
65044;DHT22;51617;48.158;16.464;2023-10-31T01:13:34;17.60;99.40
65044;DHT22;51617;48.158;16.464;2023-10-31T01:15:59;17.50;99.40
65044;DHT22;51617;48.158;16.464;2023-10-31T01:18:25;17.60;99.40
65044;DHT22;51617;48.158;16.464;2023-10-31T01:20:51;17.60;99.30
65044;DHT22;51617;48.158;16.464;2023-10-31T01:23:17;17.60;99.30
65044;DHT22;51617;48.158;16.464;2023-10-31T01:25:42;17.60;99.30
65044;DHT22;51617;48.158;16.464;2023-10-31T01:28:08;17.60;99.20
65044;DHT22;51617;48.158;16.464;2023-10-31T01:30:33;17.60;99.20
65044;DHT22;51617;48.158;16.464;2023-10-31T01:32:59;17.60;99.20
65044;DHT22;51617;48.158;16.464;2023-10-31T01:35:25;17.60;99.00
65044;DHT22;51617;48.158;16.464;2023-10-31T01:37:50;17.50;99.00
65044;DHT22;51617;48.158;16.464;2023-10-31T01:40:16;17.50;99.10
65044;DHT22;51617;48.158;16.464;2023-10-31T01:42:42;17.60;98.90
65044;DHT22;51617;48.158;16.464;2023-10-31T01:45:08;17.60;98.90
65044;DHT22;51617;48.158;16.464;2023-10-31T01:47:34;17.60;98.90
65044;DHT22;51617;48.158;16.464;2023-10-31T01:50:00;17.60;98.80
65044;DHT22;51617;48.158;16.464;2023-10-31T01:52:26;17.60;98.70
65044;DHT22;51617;48.158;16.464;2023-10-31T01:54:52;17.60;98.60
65044;DHT22;51617;48.158;16.464;2023-10-31T01:57:19;17.60;98.50
65044;DHT22;51617;48.158;16.464;2023-10-31T01:59:46;17.70;98.40
65044;DHT22;51617;48.158;16.464;2023-10-31T02:02:12;17.70;98.40
65044;DHT22;51617;48.158;16.464;2023-10-31T02:04:38;17.70;98.30
65044;DHT22;51617;48.158;16.464;2023-10-31T02:07:03;17.70;98.30
65044;DHT22;51617;48.158;16.464;2023-10-31T02:09:29;17.70;98.30
65044;DHT22;51617;48.158;16.464;2023-10-31T02:11:55;17.60;98.20
65044;DHT22;51617;48.158;16.464;2023-10-31T02:14:24;17.70;98.10
65044;DHT22;51617;48.158;16.464;2023-10-31T02:16:50;17.70;98.00
65044;DHT22;51617;48.158;16.464;2023-10-31T02:19:19;17.60;98.10
65044;DHT22;51617;48.158;16.464;2023-10-31T02:21:45;17.60;98.00
65044;DHT22;51617;48.158;16.464;2023-10-31T02:24:11;17.70;98.00
65044;DHT22;51617;48.158;16.464;2023-10-31T02:26:36;17.70;98.00
65044;DHT22;51617;48.158;16.464;2023-10-31T02:29:03;17.70;98.00
65044;DHT22;51617;48.158;16.464;2023-10-31T02:31:29;17.70;98.00
65044;DHT22;51617;48.158;16.464;2023-10-31T02:33:55;17.60;98.00
65044;DHT22;51617;48.158;16.464;2023-10-31T02:36:20;17.60;98.00
65044;DHT22;51617;48.158;16.464;2023-10-31T02:38:46;17.60;98.10
65044;DHT22;51617;48.158;16.464;2023-10-31T02:41:12;17.60;98.00
65044;DHT22;51617;48.158;16.464;2023-10-31T02:43:39;17.70;98.00
65044;DHT22;51617;48.158;16.464;2023-10-31T02:46:04;17.70;97.80
65044;DHT22;51617;48.158;16.464;2023-10-31T02:48:30;17.70;97.70
65044;DHT22;51617;48.158;16.464;2023-10-31T02:51:04;17.70;97.80
65044;DHT22;51617;48.158;16.464;2023-10-31T02:53:29;17.70;97.80
65044;DHT22;51617;48.158;16.464;2023-10-31T02:55:55;17.70;97.60
65044;DHT22;51617;48.158;16.464;2023-10-31T02:58:21;17.70;97.60
65044;DHT22;51617;48.158;16.464;2023-10-31T03:00:46;17.70;97.50
65044;DHT22;51617;48.158;16.464;2023-10-31T03:03:12;17.80;97.30
65044;DHT22;51617;48.158;16.464;2023-10-31T03:05:38;17.80;97.40
65044;DHT22;51617;48.158;16.464;2023-10-31T03:08:03;17.80;97.20
65044;DHT22;51617;48.158;16.464;2023-10-31T03:10:29;17.90;97.20
65044;DHT22;51617;48.158;16.464;2023-10-31T03:12:55;17.90;97.10
65044;DHT22;51617;48.158;16.464;2023-10-31T03:15:20;17.90;97.00
65044;DHT22;51617;48.158;16.464;2023-10-31T03:17:46;17.90;97.00
65044;DHT22;51617;48.158;16.464;2023-10-31T03:20:12;17.80;97.20
65044;DHT22;51617;48.158;16.464;2023-10-31T03:22:37;17.80;97.20
65044;DHT22;51617;48.158;16.464;2023-10-31T03:25:03;17.80;97.20
65044;DHT22;51617;48.158;16.464;2023-10-31T03:27:29;17.80;97.20
65044;DHT22;51617;48.158;16.464;2023-10-31T03:29:55;17.80;97.20
65044;DHT22;51617;48.158;16.464;2023-10-31T03:32:20;17.80;97.30
65044;DHT22;51617;48.158;16.464;2023-10-31T03:34:46;17.70;97.30
65044;DHT22;51617;48.158;16.464;2023-10-31T03:37:11;17.60;97.70
65044;DHT22;51617;48.158;16.464;2023-10-31T03:39:37;17.60;97.90
65044;DHT22;51617;48.158;16.464;2023-10-31T03:42:03;17.50;98.00
65044;DHT22;51617;48.158;16.464;2023-10-31T03:44:30;17.70;97.70
65044;DHT22;51617;48.158;16.464;2023-10-31T03:46:56;17.80;97.70
65044;DHT22;51617;48.158;16.464;2023-10-31T03:49:21;17.90;97.60
65044;DHT22;51617;48.158;16.464;2023-10-31T03:51:47;17.90;97.70
65044;DHT22;51617;48.158;16.464;2023-10-31T03:54:13;17.90;97.80
65044;DHT22;51617;48.158;16.464;2023-10-31T03:56:43;17.90;97.90
65044;DHT22;51617;48.158;16.464;2023-10-31T03:59:09;18.00;98.00
65044;DHT22;51617;48.158;16.464;2023-10-31T04:01:35;17.90;98.00
65044;DHT22;51617;48.158;16.464;2023-10-31T04:04:02;17.90;97.90
65044;DHT22;51617;48.158;16.464;2023-10-31T04:06:28;17.70;97.90
65044;DHT22;51617;48.158;16.464;2023-10-31T04:08:53;17.60;98.10
65044;DHT22;51617;48.158;16.464;2023-10-31T04:11:19;17.50;98.40
65044;DHT22;51617;48.158;16.464;2023-10-31T04:13:45;17.40;98.00
65044;DHT22;51617;48.158;16.464;2023-10-31T04:16:10;17.40;98.10
65044;DHT22;51617;48.158;16.464;2023-10-31T04:18:36;17.30;98.20
65044;DHT22;51617;48.158;16.464;2023-10-31T04:21:03;17.30;98.30
65044;DHT22;51617;48.158;16.464;2023-10-31T04:23:28;17.30;98.10
65044;DHT22;51617;48.158;16.464;2023-10-31T04:25:54;17.30;98.20
65044;DHT22;51617;48.158;16.464;2023-10-31T04:28:20;17.20;98.20
65044;DHT22;51617;48.158;16.464;2023-10-31T04:30:45;17.10;98.40
65044;DHT22;51617;48.158;16.464;2023-10-31T04:33:11;17.10;98.30
65044;DHT22;51617;48.158;16.464;2023-10-31T04:35:37;17.10;98.40
65044;DHT22;51617;48.158;16.464;2023-10-31T04:38:02;17.10;98.50
65044;DHT22;51617;48.158;16.464;2023-10-31T04:40:28;17.10;98.50
65044;DHT22;51617;48.158;16.464;2023-10-31T04:42:54;17.00;98.50
65044;DHT22;51617;48.158;16.464;2023-10-31T04:45:20;16.90;98.60
65044;DHT22;51617;48.158;16.464;2023-10-31T04:47:46;16.90;98.80
65044;DHT22;51617;48.158;16.464;2023-10-31T04:50:11;16.90;98.90
65044;DHT22;51617;48.158;16.464;2023-10-31T04:52:37;16.80;99.00
65044;DHT22;51617;48.158;16.464;2023-10-31T04:55:03;16.90;99.00
65044;DHT22;51617;48.158;16.464;2023-10-31T04:57:28;16.80;99.00
65044;DHT22;51617;48.158;16.464;2023-10-31T04:59:54;16.90;98.90
65044;DHT22;51617;48.158;16.464;2023-10-31T05:02:23;16.90;98.90
65044;DHT22;51617;48.158;16.464;2023-10-31T05:04:49;16.90;98.90
65044;DHT22;51617;48.158;16.464;2023-10-31T05:07:18;16.90;98.80
65044;DHT22;51617;48.158;16.464;2023-10-31T05:09:43;16.90;98.80
65044;DHT22;51617;48.158;16.464;2023-10-31T05:12:09;16.90;98.70
65044;DHT22;51617;48.158;16.464;2023-10-31T05:14:35;16.90;98.70
65044;DHT22;51617;48.158;16.464;2023-10-31T05:17:01;16.90;98.70
65044;DHT22;51617;48.158;16.464;2023-10-31T05:19:26;16.80;98.80
65044;DHT22;51617;48.158;16.464;2023-10-31T05:21:52;16.80;99.00
65044;DHT22;51617;48.158;16.464;2023-10-31T05:24:18;16.80;98.90
65044;DHT22;51617;48.158;16.464;2023-10-31T05:26:43;16.70;99.10
65044;DHT22;51617;48.158;16.464;2023-10-31T05:29:10;16.70;99.10
65044;DHT22;51617;48.158;16.464;2023-10-31T05:31:36;16.70;99.20
65044;DHT22;51617;48.158;16.464;2023-10-31T05:34:01;16.50;99.40
65044;DHT22;51617;48.158;16.464;2023-10-31T05:36:29;16.60;99.50
65044;DHT22;51617;48.158;16.464;2023-10-31T05:38:55;16.50;99.50
65044;DHT22;51617;48.158;16.464;2023-10-31T05:41:20;16.40;99.60
65044;DHT22;51617;48.158;16.464;2023-10-31T05:43:46;16.50;99.60
65044;DHT22;51617;48.158;16.464;2023-10-31T05:46:12;16.50;99.70
65044;DHT22;51617;48.158;16.464;2023-10-31T05:48:46;16.50;99.70
65044;DHT22;51617;48.158;16.464;2023-10-31T05:51:18;16.40;99.80
65044;DHT22;51617;48.158;16.464;2023-10-31T05:53:48;16.30;99.70
65044;DHT22;51617;48.158;16.464;2023-10-31T05:56:14;16.20;99.90
65044;DHT22;51617;48.158;16.464;2023-10-31T05:58:41;16.20;99.80
65044;DHT22;51617;48.158;16.464;2023-10-31T06:01:07;16.10;99.60
65044;DHT22;51617;48.158;16.464;2023-10-31T06:03:36;16.10;99.80
65044;DHT22;51617;48.158;16.464;2023-10-31T06:06:01;16.10;99.60
65044;DHT22;51617;48.158;16.464;2023-10-31T06:08:27;16.20;99.40
65044;DHT22;51617;48.158;16.464;2023-10-31T06:10:57;16.10;99.20
65044;DHT22;51617;48.158;16.464;2023-10-31T06:13:24;16.20;99.20
65044;DHT22;51617;48.158;16.464;2023-10-31T06:15:55;16.20;99.00
65044;DHT22;51617;48.158;16.464;2023-10-31T06:18:21;16.20;98.90
65044;DHT22;51617;48.158;16.464;2023-10-31T06:20:46;16.10;98.80
65044;DHT22;51617;48.158;16.464;2023-10-31T06:23:12;16.10;98.60
65044;DHT22;51617;48.158;16.464;2023-10-31T06:25:38;16.10;98.70
65044;DHT22;51617;48.158;16.464;2023-10-31T06:28:04;16.20;98.80
65044;DHT22;51617;48.158;16.464;2023-10-31T06:30:29;16.10;98.60
65044;DHT22;51617;48.158;16.464;2023-10-31T06:32:55;16.10;98.60
65044;DHT22;51617;48.158;16.464;2023-10-31T06:35:22;16.10;98.70
65044;DHT22;51617;48.158;16.464;2023-10-31T06:37:50;16.00;98.80
65044;DHT22;51617;48.158;16.464;2023-10-31T06:40:16;16.10;98.70
65044;DHT22;51617;48.158;16.464;2023-10-31T06:42:42;16.10;98.80
65044;DHT22;51617;48.158;16.464;2023-10-31T06:45:07;16.10;98.80
65044;DHT22;51617;48.158;16.464;2023-10-31T06:47:33;16.00;98.80
65044;DHT22;51617;48.158;16.464;2023-10-31T06:49:59;15.90;98.90
65044;DHT22;51617;48.158;16.464;2023-10-31T06:52:24;15.90;99.00
65044;DHT22;51617;48.158;16.464;2023-10-31T06:54:50;15.90;98.80
65044;DHT22;51617;48.158;16.464;2023-10-31T06:57:16;15.90;98.90
65044;DHT22;51617;48.158;16.464;2023-10-31T06:59:41;15.80;98.70
65044;DHT22;51617;48.158;16.464;2023-10-31T07:02:07;16.00;98.80
65044;DHT22;51617;48.158;16.464;2023-10-31T07:04:34;16.00;98.60
65044;DHT22;51617;48.158;16.464;2023-10-31T07:06:59;16.00;98.40
65044;DHT22;51617;48.158;16.464;2023-10-31T07:09:26;16.00;98.20
65044;DHT22;51617;48.158;16.464;2023-10-31T07:11:52;16.00;98.30
65044;DHT22;51617;48.158;16.464;2023-10-31T07:14:18;16.00;98.30
65044;DHT22;51617;48.158;16.464;2023-10-31T07:16:43;16.00;98.40
65044;DHT22;51617;48.158;16.464;2023-10-31T07:19:12;16.00;98.50
65044;DHT22;51617;48.158;16.464;2023-10-31T07:21:38;16.00;98.00
65044;DHT22;51617;48.158;16.464;2023-10-31T07:24:04;16.00;98.20
65044;DHT22;51617;48.158;16.464;2023-10-31T07:26:30;16.00;98.10
65044;DHT22;51617;48.158;16.464;2023-10-31T07:28:55;16.00;98.00
65044;DHT22;51617;48.158;16.464;2023-10-31T07:31:22;16.00;97.80
65044;DHT22;51617;48.158;16.464;2023-10-31T07:33:47;16.00;97.90
65044;DHT22;51617;48.158;16.464;2023-10-31T07:36:13;16.00;98.00
65044;DHT22;51617;48.158;16.464;2023-10-31T07:38:39;16.00;97.70
65044;DHT22;51617;48.158;16.464;2023-10-31T07:41:04;16.00;97.80
65044;DHT22;51617;48.158;16.464;2023-10-31T07:43:30;15.90;97.70
65044;DHT22;51617;48.158;16.464;2023-10-31T07:45:56;15.80;97.70
65044;DHT22;51617;48.158;16.464;2023-10-31T07:48:21;15.70;97.90
65044;DHT22;51617;48.158;16.464;2023-10-31T07:50:47;15.60;98.10
65044;DHT22;51617;48.158;16.464;2023-10-31T07:53:13;15.70;98.00
65044;DHT22;51617;48.158;16.464;2023-10-31T07:55:38;15.70;98.10
65044;DHT22;51617;48.158;16.464;2023-10-31T07:58:04;15.70;98.10
65044;DHT22;51617;48.158;16.464;2023-10-31T08:00:30;15.60;98.00
65044;DHT22;51617;48.158;16.464;2023-10-31T08:02:56;15.60;98.00
65044;DHT22;51617;48.158;16.464;2023-10-31T08:05:22;15.60;98.10
65044;DHT22;51617;48.158;16.464;2023-10-31T08:07:47;15.60;98.10
65044;DHT22;51617;48.158;16.464;2023-10-31T08:10:13;15.60;98.10
65044;DHT22;51617;48.158;16.464;2023-10-31T08:12:39;15.60;97.80
65044;DHT22;51617;48.158;16.464;2023-10-31T08:15:08;15.60;98.10
65044;DHT22;51617;48.158;16.464;2023-10-31T08:17:36;15.70;98.00
65044;DHT22;51617;48.158;16.464;2023-10-31T08:20:02;15.80;98.00
65044;DHT22;51617;48.158;16.464;2023-10-31T08:22:31;15.70;97.60
65044;DHT22;51617;48.158;16.464;2023-10-31T08:24:57;15.70;97.60
65044;DHT22;51617;48.158;16.464;2023-10-31T08:27:23;15.70;97.60
65044;DHT22;51617;48.158;16.464;2023-10-31T08:29:48;15.70;97.40
65044;DHT22;51617;48.158;16.464;2023-10-31T08:32:14;15.70;97.40
65044;DHT22;51617;48.158;16.464;2023-10-31T08:34:40;15.70;97.40
65044;DHT22;51617;48.158;16.464;2023-10-31T08:37:08;15.70;97.40
65044;DHT22;51617;48.158;16.464;2023-10-31T08:39:36;15.70;97.20
65044;DHT22;51617;48.158;16.464;2023-10-31T08:42:02;15.90;97.50
65044;DHT22;51617;48.158;16.464;2023-10-31T08:44:28;15.60;97.20
65044;DHT22;51617;48.158;16.464;2023-10-31T08:47:04;15.60;97.20
65044;DHT22;51617;48.158;16.464;2023-10-31T08:49:32;15.60;97.20
65044;DHT22;51617;48.158;16.464;2023-10-31T08:51:58;15.50;97.10
65044;DHT22;51617;48.158;16.464;2023-10-31T08:54:24;15.60;97.00
65044;DHT22;51617;48.158;16.464;2023-10-31T08:56:49;15.60;96.90
65044;DHT22;51617;48.158;16.464;2023-10-31T08:59:15;15.60;97.00
65044;DHT22;51617;48.158;16.464;2023-10-31T09:01:41;15.60;96.70
65044;DHT22;51617;48.158;16.464;2023-10-31T09:04:07;15.50;96.70
65044;DHT22;51617;48.158;16.464;2023-10-31T09:06:33;15.50;96.50
65044;DHT22;51617;48.158;16.464;2023-10-31T09:09:01;14.10;96.20
65044;DHT22;51617;48.158;16.464;2023-10-31T09:11:28;15.50;96.80
65044;DHT22;51617;48.158;16.464;2023-10-31T09:13:56;15.60;96.60
65044;DHT22;51617;48.158;16.464;2023-10-31T09:16:22;15.60;96.70
65044;DHT22;51617;48.158;16.464;2023-10-31T09:18:47;15.50;96.60
65044;DHT22;51617;48.158;16.464;2023-10-31T09:21:13;15.60;96.80
65044;DHT22;51617;48.158;16.464;2023-10-31T09:23:39;15.50;96.90
65044;DHT22;51617;48.158;16.464;2023-10-31T09:26:04;15.50;96.50
65044;DHT22;51617;48.158;16.464;2023-10-31T09:28:32;15.50;96.60
65044;DHT22;51617;48.158;16.464;2023-10-31T09:30:58;15.50;96.80
65044;DHT22;51617;48.158;16.464;2023-10-31T09:33:26;15.20;96.60
65044;DHT22;51617;48.158;16.464;2023-10-31T09:35:51;15.40;97.20
65044;DHT22;51617;48.158;16.464;2023-10-31T09:38:17;15.40;97.50
65044;DHT22;51617;48.158;16.464;2023-10-31T09:40:43;15.30;97.80
65044;DHT22;51617;48.158;16.464;2023-10-31T09:43:10;15.30;97.70
65044;DHT22;51617;48.158;16.464;2023-10-31T09:45:35;15.20;97.60
65044;DHT22;51617;48.158;16.464;2023-10-31T09:48:01;15.00;98.30
65044;DHT22;51617;48.158;16.464;2023-10-31T09:50:29;14.90;98.40
65044;DHT22;51617;48.158;16.464;2023-10-31T09:52:56;14.90;98.80
65044;DHT22;51617;48.158;16.464;2023-10-31T09:55:22;14.90;99.10
65044;DHT22;51617;48.158;16.464;2023-10-31T09:57:48;14.70;99.20
65044;DHT22;51617;48.158;16.464;2023-10-31T10:00:14;14.70;99.40
65044;DHT22;51617;48.158;16.464;2023-10-31T10:02:40;14.60;99.90
65044;DHT22;51617;48.158;16.464;2023-10-31T10:05:07;14.40;99.90
65044;DHT22;51617;48.158;16.464;2023-10-31T10:07:34;14.30;99.90
65044;DHT22;51617;48.158;16.464;2023-10-31T10:10:01;14.30;99.90
65044;DHT22;51617;48.158;16.464;2023-10-31T10:12:27;14.20;99.90
65044;DHT22;51617;48.158;16.464;2023-10-31T10:14:52;14.10;99.90
65044;DHT22;51617;48.158;16.464;2023-10-31T10:17:22;14.10;99.90
65044;DHT22;51617;48.158;16.464;2023-10-31T10:20:05;14.00;99.90
65044;DHT22;51617;48.158;16.464;2023-10-31T10:22:32;13.90;99.90
65044;DHT22;51617;48.158;16.464;2023-10-31T10:24:57;13.80;99.90
65044;DHT22;51617;48.158;16.464;2023-10-31T10:27:23;13.70;99.90
65044;DHT22;51617;48.158;16.464;2023-10-31T10:29:53;13.60;99.90
65044;DHT22;51617;48.158;16.464;2023-10-31T10:32:19;13.40;99.90
65044;DHT22;51617;48.158;16.464;2023-10-31T10:34:45;13.40;99.90
65044;DHT22;51617;48.158;16.464;2023-10-31T10:37:11;13.30;99.90
65044;DHT22;51617;48.158;16.464;2023-10-31T10:39:40;13.20;99.90
65044;DHT22;51617;48.158;16.464;2023-10-31T10:42:09;13.10;99.90
65044;DHT22;51617;48.158;16.464;2023-10-31T10:44:37;13.00;99.90
65044;DHT22;51617;48.158;16.464;2023-10-31T10:47:06;13.00;99.90
65044;DHT22;51617;48.158;16.464;2023-10-31T10:49:36;12.90;99.90
65044;DHT22;51617;48.158;16.464;2023-10-31T10:52:23;12.80;99.90
65044;DHT22;51617;48.158;16.464;2023-10-31T10:55:01;12.80;99.90
65044;DHT22;51617;48.158;16.464;2023-10-31T11:00:38;12.60;99.90
65044;DHT22;51617;48.158;16.464;2023-10-31T11:03:07;12.60;99.90
65044;DHT22;51617;48.158;16.464;2023-10-31T11:05:33;12.60;99.90
65044;DHT22;51617;48.158;16.464;2023-10-31T11:08:00;12.50;99.90
65044;DHT22;51617;48.158;16.464;2023-10-31T11:10:27;12.50;99.90
65044;DHT22;51617;48.158;16.464;2023-10-31T11:12:54;12.40;99.90
65044;DHT22;51617;48.158;16.464;2023-10-31T11:15:22;12.50;99.90
65044;DHT22;51617;48.158;16.464;2023-10-31T11:17:50;12.50;99.90
65044;DHT22;51617;48.158;16.464;2023-10-31T11:20:17;12.30;99.90
65044;DHT22;51617;48.158;16.464;2023-10-31T11:22:46;12.30;99.90
65044;DHT22;51617;48.158;16.464;2023-10-31T11:25:18;12.30;99.90
65044;DHT22;51617;48.158;16.464;2023-10-31T11:27:53;12.30;99.90
65044;DHT22;51617;48.158;16.464;2023-10-31T11:30:29;12.20;99.90
65044;DHT22;51617;48.158;16.464;2023-10-31T11:32:58;12.10;99.90
65044;DHT22;51617;48.158;16.464;2023-10-31T11:35:24;12.20;99.90
65044;DHT22;51617;48.158;16.464;2023-10-31T11:38:04;12.00;99.90
65044;DHT22;51617;48.158;16.464;2023-10-31T11:40:35;12.00;99.90
65044;DHT22;51617;48.158;16.464;2023-10-31T11:43:04;11.90;99.90
65044;DHT22;51617;48.158;16.464;2023-10-31T11:45:37;12.00;99.90
65044;DHT22;51617;48.158;16.464;2023-10-31T11:48:07;12.00;99.90
65044;DHT22;51617;48.158;16.464;2023-10-31T11:50:37;11.90;99.90
65044;DHT22;51617;48.158;16.464;2023-10-31T11:53:05;11.90;99.90
65044;DHT22;51617;48.158;16.464;2023-10-31T11:55:40;11.90;99.90
65044;DHT22;51617;48.158;16.464;2023-10-31T11:58:19;12.00;99.90
65044;DHT22;51617;48.158;16.464;2023-10-31T12:00:46;12.10;99.90
65044;DHT22;51617;48.158;16.464;2023-10-31T12:03:15;12.10;99.90
65044;DHT22;51617;48.158;16.464;2023-10-31T12:05:54;12.20;99.90
65044;DHT22;51617;48.158;16.464;2023-10-31T12:08:26;12.20;99.90
65044;DHT22;51617;48.158;16.464;2023-10-31T12:10:52;12.20;99.90
65044;DHT22;51617;48.158;16.464;2023-10-31T12:13:18;12.20;99.90
65044;DHT22;51617;48.158;16.464;2023-10-31T12:15:53;12.20;99.90
65044;DHT22;51617;48.158;16.464;2023-10-31T12:18:19;12.30;99.90
65044;DHT22;51617;48.158;16.464;2023-10-31T12:20:48;12.20;99.90
65044;DHT22;51617;48.158;16.464;2023-10-31T12:23:14;12.20;99.90
65044;DHT22;51617;48.158;16.464;2023-10-31T12:25:53;12.30;99.90
65044;DHT22;51617;48.158;16.464;2023-10-31T12:28:24;12.20;99.90
65044;DHT22;51617;48.158;16.464;2023-10-31T12:30:54;12.20;99.90
65044;DHT22;51617;48.158;16.464;2023-10-31T12:33:20;12.20;99.90
65044;DHT22;51617;48.158;16.464;2023-10-31T12:35:48;12.20;99.90
65044;DHT22;51617;48.158;16.464;2023-10-31T12:38:14;12.10;99.90
65044;DHT22;51617;48.158;16.464;2023-10-31T12:40:41;12.10;99.90
65044;DHT22;51617;48.158;16.464;2023-10-31T12:43:08;12.10;99.90
65044;DHT22;51617;48.158;16.464;2023-10-31T12:45:35;12.10;99.90
65044;DHT22;51617;48.158;16.464;2023-10-31T12:48:08;12.10;99.90
65044;DHT22;51617;48.158;16.464;2023-10-31T12:50:35;12.10;99.90
65044;DHT22;51617;48.158;16.464;2023-10-31T12:53:08;12.10;99.90
65044;DHT22;51617;48.158;16.464;2023-10-31T12:55:41;12.10;99.90
65044;DHT22;51617;48.158;16.464;2023-10-31T12:58:07;12.10;99.90
65044;DHT22;51617;48.158;16.464;2023-10-31T13:00:36;12.10;99.90
65044;DHT22;51617;48.158;16.464;2023-10-31T13:03:07;12.20;99.90
65044;DHT22;51617;48.158;16.464;2023-10-31T13:05:34;12.20;99.90
65044;DHT22;51617;48.158;16.464;2023-10-31T13:08:00;12.20;99.90
65044;DHT22;51617;48.158;16.464;2023-10-31T13:10:28;12.20;99.90
65044;DHT22;51617;48.158;16.464;2023-10-31T13:12:55;12.30;99.90
65044;DHT22;51617;48.158;16.464;2023-10-31T13:15:22;12.40;99.90
65044;DHT22;51617;48.158;16.464;2023-10-31T13:17:49;12.40;99.90
65044;DHT22;51617;48.158;16.464;2023-10-31T13:20:16;12.40;99.90
65044;DHT22;51617;48.158;16.464;2023-10-31T13:22:43;12.40;99.90
65044;DHT22;51617;48.158;16.464;2023-10-31T13:25:10;12.40;99.90
65044;DHT22;51617;48.158;16.464;2023-10-31T13:27:37;12.40;99.90
65044;DHT22;51617;48.158;16.464;2023-10-31T13:30:04;12.40;99.90
65044;DHT22;51617;48.158;16.464;2023-10-31T13:32:29;12.40;99.90
65044;DHT22;51617;48.158;16.464;2023-10-31T13:34:55;12.50;99.90
65044;DHT22;51617;48.158;16.464;2023-10-31T13:37:21;12.50;99.90
65044;DHT22;51617;48.158;16.464;2023-10-31T13:39:47;12.40;99.90
65044;DHT22;51617;48.158;16.464;2023-10-31T13:42:13;12.30;99.90
65044;DHT22;51617;48.158;16.464;2023-10-31T13:44:40;12.30;99.90
65044;DHT22;51617;48.158;16.464;2023-10-31T13:47:06;12.20;99.90
65044;DHT22;51617;48.158;16.464;2023-10-31T13:49:31;12.20;99.90
65044;DHT22;51617;48.158;16.464;2023-10-31T13:51:57;12.20;99.90
65044;DHT22;51617;48.158;16.464;2023-10-31T13:54:24;12.20;99.90
65044;DHT22;51617;48.158;16.464;2023-10-31T13:56:50;12.30;99.90
65044;DHT22;51617;48.158;16.464;2023-10-31T13:59:15;12.30;99.90
65044;DHT22;51617;48.158;16.464;2023-10-31T14:01:41;12.20;99.90
65044;DHT22;51617;48.158;16.464;2023-10-31T14:04:08;12.30;99.90
65044;DHT22;51617;48.158;16.464;2023-10-31T14:06:34;12.30;99.90
65044;DHT22;51617;48.158;16.464;2023-10-31T14:09:00;12.30;99.90
65044;DHT22;51617;48.158;16.464;2023-10-31T14:11:30;12.30;99.90
65044;DHT22;51617;48.158;16.464;2023-10-31T14:13:56;12.40;99.90
65044;DHT22;51617;48.158;16.464;2023-10-31T14:16:28;12.40;99.90
65044;DHT22;51617;48.158;16.464;2023-10-31T14:18:55;12.50;99.90
65044;DHT22;51617;48.158;16.464;2023-10-31T14:21:21;12.50;99.90
65044;DHT22;51617;48.158;16.464;2023-10-31T14:23:52;12.40;99.90
65044;DHT22;51617;48.158;16.464;2023-10-31T14:26:23;12.40;99.90
65044;DHT22;51617;48.158;16.464;2023-10-31T14:28:49;12.40;99.90
65044;DHT22;51617;48.158;16.464;2023-10-31T14:31:16;12.40;99.90
65044;DHT22;51617;48.158;16.464;2023-10-31T14:33:42;12.50;99.90
65044;DHT22;51617;48.158;16.464;2023-10-31T14:36:09;12.50;99.90
65044;DHT22;51617;48.158;16.464;2023-10-31T14:38:38;12.50;99.90
65044;DHT22;51617;48.158;16.464;2023-10-31T14:41:04;12.50;99.90
65044;DHT22;51617;48.158;16.464;2023-10-31T14:43:31;12.50;99.90
65044;DHT22;51617;48.158;16.464;2023-10-31T14:45:57;12.50;99.90
65044;DHT22;51617;48.158;16.464;2023-10-31T14:48:23;12.50;99.90
65044;DHT22;51617;48.158;16.464;2023-10-31T14:50:49;12.50;99.90
65044;DHT22;51617;48.158;16.464;2023-10-31T14:53:15;12.60;99.90
65044;DHT22;51617;48.158;16.464;2023-10-31T14:55:41;12.60;99.90
65044;DHT22;51617;48.158;16.464;2023-10-31T14:58:07;12.70;99.90
65044;DHT22;51617;48.158;16.464;2023-10-31T15:00:36;12.70;99.90
65044;DHT22;51617;48.158;16.464;2023-10-31T15:03:02;12.70;99.90
65044;DHT22;51617;48.158;16.464;2023-10-31T15:05:28;12.70;99.90
65044;DHT22;51617;48.158;16.464;2023-10-31T15:07:54;12.70;99.90
65044;DHT22;51617;48.158;16.464;2023-10-31T15:10:20;12.70;99.90
65044;DHT22;51617;48.158;16.464;2023-10-31T15:12:47;12.70;99.90
65044;DHT22;51617;48.158;16.464;2023-10-31T15:15:15;12.70;99.90